sensor_id;sensor_type;location;lat;lon;timestamp;noise_LAeq;noise_LA_min;noise_LA_max;noise_LA01;noise_LA95
81493;Laerm;70900;51.798;10.954;2024-03-23T00:53:01;28.80;23.82;39.07;;
81493;Laerm;70900;51.798;10.954;2024-03-23T00:55:30;27.61;23.24;36.94;;
81493;Laerm;70900;51.798;10.954;2024-03-23T00:57:59;25.94;23.60;31.59;;
81493;Laerm;70900;51.798;10.954;2024-03-23T01:00:24;29.68;24.52;38.95;;
81493;Laerm;70900;51.798;10.954;2024-03-23T01:02:50;28.53;24.51;34.56;;
81493;Laerm;70900;51.798;10.954;2024-03-23T01:05:15;29.74;23.72;35.55;;
81493;Laerm;70900;51.798;10.954;2024-03-23T01:07:41;31.33;23.40;37.35;;
81493;Laerm;70900;51.798;10.954;2024-03-23T01:10:06;28.03;24.13;37.21;;
81493;Laerm;70900;51.798;10.954;2024-03-23T01:12:32;29.81;24.52;45.77;;
81493;Laerm;70900;51.798;10.954;2024-03-23T01:14:57;30.13;24.31;39.37;;
81493;Laerm;70900;51.798;10.954;2024-03-23T01:17:23;30.96;23.71;51.68;;
81493;Laerm;70900;51.798;10.954;2024-03-23T01:19:48;33.69;24.47;47.52;;
81493;Laerm;70900;51.798;10.954;2024-03-23T01:22:14;35.10;24.96;47.49;;
81493;Laerm;70900;51.798;10.954;2024-03-23T01:24:39;32.66;25.83;47.89;;
81493;Laerm;70900;51.798;10.954;2024-03-23T01:27:08;29.73;24.49;40.78;;
81493;Laerm;70900;51.798;10.954;2024-03-23T01:29:33;32.49;25.84;42.11;;
81493;Laerm;70900;51.798;10.954;2024-03-23T01:31:58;28.71;25.59;36.16;;
81493;Laerm;70900;51.798;10.954;2024-03-23T01:34:24;30.05;26.87;36.72;;
81493;Laerm;70900;51.798;10.954;2024-03-23T01:36:50;29.98;26.03;37.73;;
81493;Laerm;70900;51.798;10.954;2024-03-23T01:39:16;32.57;24.90;62.84;;
81493;Laerm;70900;51.798;10.954;2024-03-23T01:41:41;28.90;24.93;35.46;;
81493;Laerm;70900;51.798;10.954;2024-03-23T01:44:09;31.20;25.30;41.47;;
81493;Laerm;70900;51.798;10.954;2024-03-23T01:46:35;51.22;24.94;68.63;;
81493;Laerm;70900;51.798;10.954;2024-03-23T01:49:02;31.52;23.96;42.54;;
81493;Laerm;70900;51.798;10.954;2024-03-23T01:51:28;31.63;25.63;42.20;;
81493;Laerm;70900;51.798;10.954;2024-03-23T01:53:54;31.16;23.82;43.03;;
81493;Laerm;70900;51.798;10.954;2024-03-23T01:56:21;31.47;25.71;38.93;;
81493;Laerm;70900;51.798;10.954;2024-03-23T01:58:46;29.07;23.63;38.90;;
81493;Laerm;70900;51.798;10.954;2024-03-23T02:01:12;45.74;25.22;64.36;;
81493;Laerm;70900;51.798;10.954;2024-03-23T02:03:44;31.16;25.38;41.99;;
81493;Laerm;70900;51.798;10.954;2024-03-23T02:06:09;27.81;23.61;43.79;;
81493;Laerm;70900;51.798;10.954;2024-03-23T02:08:41;29.92;24.74;39.58;;
81493;Laerm;70900;51.798;10.954;2024-03-23T02:11:07;31.81;24.80;39.74;;
81493;Laerm;70900;51.798;10.954;2024-03-23T02:13:33;31.08;26.76;37.99;;
81493;Laerm;70900;51.798;10.954;2024-03-23T02:16:00;28.52;24.30;38.13;;
81493;Laerm;70900;51.798;10.954;2024-03-23T02:18:32;29.45;25.04;41.66;;
81493;Laerm;70900;51.798;10.954;2024-03-23T02:20:58;30.05;25.11;42.38;;
81493;Laerm;70900;51.798;10.954;2024-03-23T02:23:31;28.88;24.23;38.66;;
81493;Laerm;70900;51.798;10.954;2024-03-23T02:25:56;28.92;22.52;40.13;;
81493;Laerm;70900;51.798;10.954;2024-03-23T02:28:21;27.60;22.57;34.94;;
81493;Laerm;70900;51.798;10.954;2024-03-23T02:30:48;26.91;22.91;35.91;;
81493;Laerm;70900;51.798;10.954;2024-03-23T02:33:13;28.55;23.53;39.84;;
81493;Laerm;70900;51.798;10.954;2024-03-23T02:35:39;32.12;25.37;42.21;;
81493;Laerm;70900;51.798;10.954;2024-03-23T02:38:04;28.43;23.20;42.37;;
81493;Laerm;70900;51.798;10.954;2024-03-23T02:40:29;29.90;22.67;40.69;;
81493;Laerm;70900;51.798;10.954;2024-03-23T02:42:55;26.52;23.41;33.96;;
81493;Laerm;70900;51.798;10.954;2024-03-23T02:45:20;27.86;23.12;36.23;;
81493;Laerm;70900;51.798;10.954;2024-03-23T02:47:46;29.79;23.16;44.63;;
81493;Laerm;70900;51.798;10.954;2024-03-23T02:50:11;29.81;23.03;34.52;;
81493;Laerm;70900;51.798;10.954;2024-03-23T02:52:36;31.46;25.38;41.34;;
81493;Laerm;70900;51.798;10.954;2024-03-23T02:55:02;33.62;26.26;41.88;;
81493;Laerm;70900;51.798;10.954;2024-03-23T02:57:29;32.17;26.15;41.92;;
81493;Laerm;70900;51.798;10.954;2024-03-23T02:59:54;30.06;23.59;39.44;;
81493;Laerm;70900;51.798;10.954;2024-03-23T03:02:21;29.01;24.06;38.40;;
81493;Laerm;70900;51.798;10.954;2024-03-23T03:04:47;32.20;24.61;43.94;;
81493;Laerm;70900;51.798;10.954;2024-03-23T03:07:12;28.94;23.66;41.12;;
81493;Laerm;70900;51.798;10.954;2024-03-23T03:09:38;35.78;24.64;53.99;;
81493;Laerm;70900;51.798;10.954;2024-03-23T03:12:05;45.42;26.30;60.73;;
81493;Laerm;70900;51.798;10.954;2024-03-23T03:14:31;46.22;29.03;62.14;;
81493;Laerm;70900;51.798;10.954;2024-03-23T03:16:58;45.87;27.46;62.01;;
81493;Laerm;70900;51.798;10.954;2024-03-23T03:19:23;41.16;30.42;62.14;;
81493;Laerm;70900;51.798;10.954;2024-03-23T03:21:49;36.78;30.55;47.15;;
81493;Laerm;70900;51.798;10.954;2024-03-23T03:24:14;37.61;27.51;48.98;;
81493;Laerm;70900;51.798;10.954;2024-03-23T03:26:40;33.22;24.91;50.07;;
81493;Laerm;70900;51.798;10.954;2024-03-23T03:29:05;32.74;25.14;44.87;;
81493;Laerm;70900;51.798;10.954;2024-03-23T03:31:30;33.66;26.76;46.34;;
81493;Laerm;70900;51.798;10.954;2024-03-23T03:33:56;45.19;30.22;54.05;;
81493;Laerm;70900;51.798;10.954;2024-03-23T03:36:21;45.05;39.92;50.46;;
81493;Laerm;70900;51.798;10.954;2024-03-23T03:38:46;49.65;39.11;65.45;;
81493;Laerm;70900;51.798;10.954;2024-03-23T03:41:12;49.79;40.57;62.22;;
81493;Laerm;70900;51.798;10.954;2024-03-23T03:43:37;47.86;44.05;56.93;;
81493;Laerm;70900;51.798;10.954;2024-03-23T03:46:03;43.41;37.99;53.86;;
81493;Laerm;70900;51.798;10.954;2024-03-23T03:48:29;40.19;35.49;53.59;;
81493;Laerm;70900;51.798;10.954;2024-03-23T03:50:54;44.44;39.95;53.13;;
81493;Laerm;70900;51.798;10.954;2024-03-23T03:53:20;44.41;39.68;57.75;;
81493;Laerm;70900;51.798;10.954;2024-03-23T03:55:45;41.75;34.73;53.70;;
81493;Laerm;70900;51.798;10.954;2024-03-23T03:58:11;45.96;40.52;55.32;;
81493;Laerm;70900;51.798;10.954;2024-03-23T04:00:36;42.77;38.19;53.76;;
81493;Laerm;70900;51.798;10.954;2024-03-23T04:03:01;55.07;38.91;74.57;;
81493;Laerm;70900;51.798;10.954;2024-03-23T04:05:27;43.65;38.92;62.00;;
81493;Laerm;70900;51.798;10.954;2024-03-23T04:07:52;44.60;40.29;55.91;;
81493;Laerm;70900;51.798;10.954;2024-03-23T04:10:18;45.00;40.86;55.20;;
81493;Laerm;70900;51.798;10.954;2024-03-23T04:12:43;45.82;41.22;56.92;;
81493;Laerm;70900;51.798;10.954;2024-03-23T04:15:09;45.21;39.42;54.38;;
81493;Laerm;70900;51.798;10.954;2024-03-23T04:17:35;45.72;40.28;54.59;;
81493;Laerm;70900;51.798;10.954;2024-03-23T04:20:01;55.13;42.07;72.74;;
81493;Laerm;70900;51.798;10.954;2024-03-23T04:22:26;47.31;43.48;57.54;;
81493;Laerm;70900;51.798;10.954;2024-03-23T04:24:55;50.50;43.80;63.63;;
81493;Laerm;70900;51.798;10.954;2024-03-23T04:27:20;50.71;43.84;62.85;;
81493;Laerm;70900;51.798;10.954;2024-03-23T04:29:52;52.07;43.25;66.58;;
81493;Laerm;70900;51.798;10.954;2024-03-23T04:32:18;52.15;44.84;66.72;;
81493;Laerm;70900;51.798;10.954;2024-03-23T04:34:43;49.55;44.76;59.83;;
81493;Laerm;70900;51.798;10.954;2024-03-23T04:37:09;50.04;45.18;59.72;;
81493;Laerm;70900;51.798;10.954;2024-03-23T04:39:38;50.64;45.20;61.99;;
81493;Laerm;70900;51.798;10.954;2024-03-23T04:42:04;54.39;46.80;70.18;;
81493;Laerm;70900;51.798;10.954;2024-03-23T04:44:29;50.62;47.06;57.41;;
81493;Laerm;70900;51.798;10.954;2024-03-23T04:46:59;53.15;46.20;68.04;;
81493;Laerm;70900;51.798;10.954;2024-03-23T04:49:25;58.87;47.32;76.09;;
81493;Laerm;70900;51.798;10.954;2024-03-23T04:51:50;58.08;48.75;74.98;;
81493;Laerm;70900;51.798;10.954;2024-03-23T04:54:15;59.77;48.00;75.56;;
81493;Laerm;70900;51.798;10.954;2024-03-23T04:56:41;59.49;47.23;79.69;;
81493;Laerm;70900;51.798;10.954;2024-03-23T04:59:07;51.62;46.64;60.23;;
81493;Laerm;70900;51.798;10.954;2024-03-23T05:01:32;51.34;46.30;60.33;;
81493;Laerm;70900;51.798;10.954;2024-03-23T05:03:58;49.42;45.35;56.84;;
81493;Laerm;70900;51.798;10.954;2024-03-23T05:06:26;50.68;46.64;61.85;;
81493;Laerm;70900;51.798;10.954;2024-03-23T05:08:51;50.33;46.05;60.31;;
81493;Laerm;70900;51.798;10.954;2024-03-23T05:11:19;53.65;46.73;70.41;;
81493;Laerm;70900;51.798;10.954;2024-03-23T05:13:46;50.11;47.21;59.64;;
81493;Laerm;70900;51.798;10.954;2024-03-23T05:16:11;53.86;46.25;68.76;;
81493;Laerm;70900;51.798;10.954;2024-03-23T05:18:36;56.73;46.30;76.26;;
81493;Laerm;70900;51.798;10.954;2024-03-23T05:21:02;50.67;46.30;57.92;;
81493;Laerm;70900;51.798;10.954;2024-03-23T05:23:30;52.76;46.92;67.76;;
81493;Laerm;70900;51.798;10.954;2024-03-23T05:25:55;49.94;45.55;57.97;;
81493;Laerm;70900;51.798;10.954;2024-03-23T05:28:23;51.04;47.82;59.31;;
81493;Laerm;70900;51.798;10.954;2024-03-23T05:30:53;57.39;47.14;73.58;;
81493;Laerm;70900;51.798;10.954;2024-03-23T05:33:19;48.98;45.40;61.27;;
81493;Laerm;70900;51.798;10.954;2024-03-23T05:35:44;61.23;46.27;79.87;;
81493;Laerm;70900;51.798;10.954;2024-03-23T05:38:10;49.66;45.95;62.12;;
81493;Laerm;70900;51.798;10.954;2024-03-23T05:40:35;58.21;46.27;73.12;;
81493;Laerm;70900;51.798;10.954;2024-03-23T05:43:02;49.94;46.36;60.85;;
81493;Laerm;70900;51.798;10.954;2024-03-23T05:45:28;58.21;45.75;76.20;;
81493;Laerm;70900;51.798;10.954;2024-03-23T05:47:56;50.41;47.48;58.01;;
81493;Laerm;70900;51.798;10.954;2024-03-23T05:50:22;58.54;46.12;73.07;;
81493;Laerm;70900;51.798;10.954;2024-03-23T05:52:47;55.33;46.12;70.57;;
81493;Laerm;70900;51.798;10.954;2024-03-23T05:55:13;57.97;46.98;74.38;;
81493;Laerm;70900;51.798;10.954;2024-03-23T05:57:39;49.54;46.43;68.10;;
81493;Laerm;70900;51.798;10.954;2024-03-23T06:00:05;55.78;43.69;73.16;;
81493;Laerm;70900;51.798;10.954;2024-03-23T06:02:35;46.72;43.51;54.87;;
81493;Laerm;70900;51.798;10.954;2024-03-23T06:05:00;46.05;42.39;56.27;;
81493;Laerm;70900;51.798;10.954;2024-03-23T06:07:27;46.40;42.26;55.91;;
81493;Laerm;70900;51.798;10.954;2024-03-23T06:09:53;56.53;42.94;72.55;;
81493;Laerm;70900;51.798;10.954;2024-03-23T06:12:18;55.55;42.85;71.57;;
81493;Laerm;70900;51.798;10.954;2024-03-23T06:14:43;54.07;43.66;70.56;;
81493;Laerm;70900;51.798;10.954;2024-03-23T06:17:09;45.85;42.60;57.03;;
81493;Laerm;70900;51.798;10.954;2024-03-23T06:19:34;55.74;42.46;73.00;;
81493;Laerm;70900;51.798;10.954;2024-03-23T06:21:59;45.95;42.02;60.29;;
81493;Laerm;70900;51.798;10.954;2024-03-23T06:24:25;50.36;41.55;68.36;;
81493;Laerm;70900;51.798;10.954;2024-03-23T06:26:50;45.82;42.80;55.40;;
81493;Laerm;70900;51.798;10.954;2024-03-23T06:29:16;46.73;43.05;63.17;;
81493;Laerm;70900;51.798;10.954;2024-03-23T06:31:42;55.58;44.92;76.39;;
81493;Laerm;70900;51.798;10.954;2024-03-23T06:34:07;57.53;45.57;75.95;;
81493;Laerm;70900;51.798;10.954;2024-03-23T06:36:32;54.03;45.75;75.09;;
81493;Laerm;70900;51.798;10.954;2024-03-23T06:38:58;49.80;45.86;61.46;;
81493;Laerm;70900;51.798;10.954;2024-03-23T06:41:23;56.76;45.33;73.55;;
81493;Laerm;70900;51.798;10.954;2024-03-23T06:43:49;54.35;44.40;73.09;;
81493;Laerm;70900;51.798;10.954;2024-03-23T06:46:14;59.50;43.71;75.20;;
81493;Laerm;70900;51.798;10.954;2024-03-23T06:48:40;57.14;43.08;71.44;;
81493;Laerm;70900;51.798;10.954;2024-03-23T06:51:05;62.59;43.39;76.82;;
81493;Laerm;70900;51.798;10.954;2024-03-23T06:53:31;61.49;45.00;78.33;;
81493;Laerm;70900;51.798;10.954;2024-03-23T06:55:57;59.37;46.16;76.00;;
81493;Laerm;70900;51.798;10.954;2024-03-23T06:58:23;60.71;47.07;81.17;;
81493;Laerm;70900;51.798;10.954;2024-03-23T07:00:48;55.44;48.20;70.19;;
81493;Laerm;70900;51.798;10.954;2024-03-23T07:03:14;57.63;48.34;73.52;;
81493;Laerm;70900;51.798;10.954;2024-03-23T07:05:40;62.45;48.77;77.50;;
81493;Laerm;70900;51.798;10.954;2024-03-23T07:08:05;58.62;48.27;75.18;;
81493;Laerm;70900;51.798;10.954;2024-03-23T07:10:31;61.03;47.51;76.84;;
81493;Laerm;70900;51.798;10.954;2024-03-23T07:12:56;50.51;47.34;59.24;;
81493;Laerm;70900;51.798;10.954;2024-03-23T07:15:21;59.49;45.62;77.50;;
81493;Laerm;70900;51.798;10.954;2024-03-23T07:17:47;62.00;44.84;76.11;;
81493;Laerm;70900;51.798;10.954;2024-03-23T07:20:13;60.01;43.74;75.12;;
81493;Laerm;70900;51.798;10.954;2024-03-23T07:22:38;59.89;43.04;76.95;;
81493;Laerm;70900;51.798;10.954;2024-03-23T07:25:05;59.24;42.78;74.68;;
81493;Laerm;70900;51.798;10.954;2024-03-23T07:27:30;55.39;42.19;70.43;;
81493;Laerm;70900;51.798;10.954;2024-03-23T07:29:55;44.66;41.02;54.14;;
81493;Laerm;70900;51.798;10.954;2024-03-23T07:32:21;61.89;42.45;76.85;;
81493;Laerm;70900;51.798;10.954;2024-03-23T07:34:46;59.77;41.62;72.67;;
81493;Laerm;70900;51.798;10.954;2024-03-23T07:37:11;58.97;41.19;71.38;;
81493;Laerm;70900;51.798;10.954;2024-03-23T07:39:37;58.08;41.77;73.07;;
81493;Laerm;70900;51.798;10.954;2024-03-23T07:42:02;60.95;41.51;75.30;;
81493;Laerm;70900;51.798;10.954;2024-03-23T07:44:33;63.87;42.42;76.40;;
81493;Laerm;70900;51.798;10.954;2024-03-23T07:47:00;62.95;42.92;77.03;;
81493;Laerm;70900;51.798;10.954;2024-03-23T07:49:25;57.36;41.85;73.19;;
81493;Laerm;70900;51.798;10.954;2024-03-23T07:51:51;62.79;41.65;80.65;;
81493;Laerm;70900;51.798;10.954;2024-03-23T07:54:16;60.10;42.51;78.75;;
81493;Laerm;70900;51.798;10.954;2024-03-23T07:56:42;60.07;43.82;73.67;;
81493;Laerm;70900;51.798;10.954;2024-03-23T07:59:07;62.89;44.95;75.69;;
81493;Laerm;70900;51.798;10.954;2024-03-23T08:01:32;61.55;43.55;74.59;;
81493;Laerm;70900;51.798;10.954;2024-03-23T08:03:58;59.99;42.64;77.84;;
81493;Laerm;70900;51.798;10.954;2024-03-23T08:06:23;54.23;43.21;75.11;;
81493;Laerm;70900;51.798;10.954;2024-03-23T08:08:51;60.76;42.71;80.82;;
81493;Laerm;70900;51.798;10.954;2024-03-23T08:11:25;56.04;44.52;69.88;;
81493;Laerm;70900;51.798;10.954;2024-03-23T08:13:50;63.98;45.98;81.30;;
81493;Laerm;70900;51.798;10.954;2024-03-23T08:16:16;58.02;43.30;74.76;;
81493;Laerm;70900;51.798;10.954;2024-03-23T08:18:41;60.83;42.27;76.54;;
81493;Laerm;70900;51.798;10.954;2024-03-23T08:21:07;62.42;44.56;76.35;;
81493;Laerm;70900;51.798;10.954;2024-03-23T08:23:35;59.77;45.78;74.68;;
81493;Laerm;70900;51.798;10.954;2024-03-23T08:26:04;59.80;46.50;72.64;;
81493;Laerm;70900;51.798;10.954;2024-03-23T08:28:30;63.83;47.69;76.17;;
81493;Laerm;70900;51.798;10.954;2024-03-23T08:30:55;62.87;48.53;74.85;;
81493;Laerm;70900;51.798;10.954;2024-03-23T08:33:21;65.06;46.43;79.23;;
81493;Laerm;70900;51.798;10.954;2024-03-23T08:35:53;60.91;44.92;72.33;;
81493;Laerm;70900;51.798;10.954;2024-03-23T08:38:19;57.11;42.74;74.65;;
81493;Laerm;70900;51.798;10.954;2024-03-23T08:40:45;61.55;42.06;80.74;;
81493;Laerm;70900;51.798;10.954;2024-03-23T08:43:10;58.04;40.42;72.12;;
81493;Laerm;70900;51.798;10.954;2024-03-23T08:45:35;58.57;40.43;71.92;;
81493;Laerm;70900;51.798;10.954;2024-03-23T08:48:01;56.56;40.88;72.05;;
81493;Laerm;70900;51.798;10.954;2024-03-23T08:50:26;50.07;39.67;65.03;;
81493;Laerm;70900;51.798;10.954;2024-03-23T08:52:51;58.75;40.21;72.41;;
81493;Laerm;70900;51.798;10.954;2024-03-23T08:55:17;56.95;40.20;70.75;;
81493;Laerm;70900;51.798;10.954;2024-03-23T08:57:42;55.97;41.11;69.66;;
81493;Laerm;70900;51.798;10.954;2024-03-23T09:00:07;59.39;39.76;73.57;;
81493;Laerm;70900;51.798;10.954;2024-03-23T09:02:34;56.79;39.13;69.57;;
81493;Laerm;70900;51.798;10.954;2024-03-23T09:05:00;52.00;39.56;66.47;;
81493;Laerm;70900;51.798;10.954;2024-03-23T09:07:30;59.90;39.55;70.79;;
81493;Laerm;70900;51.798;10.954;2024-03-23T09:09:55;58.39;41.15;74.33;;
81493;Laerm;70900;51.798;10.954;2024-03-23T09:12:20;56.31;42.70;69.58;;
81493;Laerm;70900;51.798;10.954;2024-03-23T09:14:46;62.39;43.59;72.38;;
81493;Laerm;70900;51.798;10.954;2024-03-23T09:17:11;50.81;39.76;64.60;;
81493;Laerm;70900;51.798;10.954;2024-03-23T09:19:37;57.07;39.12;70.70;;
81493;Laerm;70900;51.798;10.954;2024-03-23T09:22:02;56.77;39.71;71.86;;
81493;Laerm;70900;51.798;10.954;2024-03-23T09:24:27;58.71;39.23;74.57;;
81493;Laerm;70900;51.798;10.954;2024-03-23T09:26:53;59.20;38.75;72.88;;
81493;Laerm;70900;51.798;10.954;2024-03-23T09:29:18;64.12;39.64;79.29;;
81493;Laerm;70900;51.798;10.954;2024-03-23T09:31:44;60.28;40.91;73.53;;
81493;Laerm;70900;51.798;10.954;2024-03-23T09:34:10;58.45;39.20;72.22;;
81493;Laerm;70900;51.798;10.954;2024-03-23T09:36:35;57.76;39.40;70.68;;
81493;Laerm;70900;51.798;10.954;2024-03-23T09:39:00;58.50;40.62;71.01;;
81493;Laerm;70900;51.798;10.954;2024-03-23T09:41:26;57.75;39.78;70.72;;
81493;Laerm;70900;51.798;10.954;2024-03-23T09:43:54;57.77;37.52;68.76;;
81493;Laerm;70900;51.798;10.954;2024-03-23T09:46:19;51.40;37.20;66.16;;
81493;Laerm;70900;51.798;10.954;2024-03-23T09:48:46;48.51;37.33;61.74;;
81493;Laerm;70900;51.798;10.954;2024-03-23T09:51:16;49.12;37.55;68.67;;
81493;Laerm;70900;51.798;10.954;2024-03-23T09:53:42;56.86;37.19;70.92;;
81493;Laerm;70900;51.798;10.954;2024-03-23T09:56:07;55.09;37.46;66.13;;
81493;Laerm;70900;51.798;10.954;2024-03-23T09:58:33;55.14;42.01;66.18;;
81493;Laerm;70900;51.798;10.954;2024-03-23T10:00:58;57.23;42.81;69.75;;
81493;Laerm;70900;51.798;10.954;2024-03-23T10:03:23;51.32;40.81;64.83;;
81493;Laerm;70900;51.798;10.954;2024-03-23T10:05:59;57.60;42.71;70.18;;
81493;Laerm;70900;51.798;10.954;2024-03-23T10:08:25;59.78;47.55;70.14;;
81493;Laerm;70900;51.798;10.954;2024-03-23T10:10:51;56.55;47.71;66.27;;
81493;Laerm;70900;51.798;10.954;2024-03-23T10:13:25;70.84;59.53;78.80;;
81493;Laerm;70900;51.798;10.954;2024-03-23T10:15:57;68.11;46.36;74.72;;
81493;Laerm;70900;51.798;10.954;2024-03-23T10:18:23;60.07;44.01;73.36;;
81493;Laerm;70900;51.798;10.954;2024-03-23T10:21:06;52.86;37.35;74.94;;
81493;Laerm;70900;51.798;10.954;2024-03-23T10:23:32;55.25;37.67;77.46;;
81493;Laerm;70900;51.798;10.954;2024-03-23T10:28:58;59.40;39.03;70.90;;
81493;Laerm;70900;51.798;10.954;2024-03-23T10:31:28;53.88;38.23;68.86;;
81493;Laerm;70900;51.798;10.954;2024-03-23T10:33:54;60.80;39.06;78.00;;
81493;Laerm;70900;51.798;10.954;2024-03-23T10:36:20;57.29;39.89;74.79;;
81493;Laerm;70900;51.798;10.954;2024-03-23T10:38:46;55.46;40.00;68.10;;
81493;Laerm;70900;51.798;10.954;2024-03-23T10:41:11;55.64;39.86;69.84;;
81493;Laerm;70900;51.798;10.954;2024-03-23T10:43:37;54.13;37.04;71.49;;
81493;Laerm;70900;51.798;10.954;2024-03-23T10:46:03;56.04;37.38;70.78;;
81493;Laerm;70900;51.798;10.954;2024-03-23T10:48:28;60.05;47.06;74.32;;
81493;Laerm;70900;51.798;10.954;2024-03-23T10:50:54;51.13;37.64;70.07;;
81493;Laerm;70900;51.798;10.954;2024-03-23T10:53:21;57.42;41.39;72.54;;
81493;Laerm;70900;51.798;10.954;2024-03-23T10:55:48;55.24;39.04;67.46;;
81493;Laerm;70900;51.798;10.954;2024-03-23T10:58:13;53.76;37.39;66.37;;
81493;Laerm;70900;51.798;10.954;2024-03-23T11:00:39;57.60;38.19;67.46;;
81493;Laerm;70900;51.798;10.954;2024-03-23T11:05:48;58.30;41.78;75.99;;
81493;Laerm;70900;51.798;10.954;2024-03-23T11:08:29;58.42;39.30;74.90;;
81493;Laerm;70900;51.798;10.954;2024-03-23T11:10:54;52.82;38.23;64.07;;
81493;Laerm;70900;51.798;10.954;2024-03-23T11:13:36;57.24;39.31;69.44;;
81493;Laerm;70900;51.798;10.954;2024-03-23T11:16:12;52.98;40.09;64.00;;
81493;Laerm;70900;51.798;10.954;2024-03-23T11:18:37;58.48;39.56;78.35;;
81493;Laerm;70900;51.798;10.954;2024-03-23T11:21:03;51.47;41.43;63.15;;
81493;Laerm;70900;51.798;10.954;2024-03-23T11:23:28;55.24;40.79;68.50;;
81493;Laerm;70900;51.798;10.954;2024-03-23T11:25:54;59.05;40.58;72.43;;
81493;Laerm;70900;51.798;10.954;2024-03-23T11:28:19;59.90;46.99;70.24;;
81493;Laerm;70900;51.798;10.954;2024-03-23T11:30:44;57.68;41.42;76.59;;
81493;Laerm;70900;51.798;10.954;2024-03-23T11:33:10;64.70;45.31;81.04;;
81493;Laerm;70900;51.798;10.954;2024-03-23T11:35:38;56.13;46.02;71.64;;
81493;Laerm;70900;51.798;10.954;2024-03-23T11:38:12;62.73;48.05;74.28;;
81493;Laerm;70900;51.798;10.954;2024-03-23T11:40:42;62.75;44.57;77.73;;
81493;Laerm;70900;51.798;10.954;2024-03-23T11:43:10;60.33;42.67;76.00;;
81493;Laerm;70900;51.798;10.954;2024-03-23T11:45:46;61.54;39.54;79.48;;
81493;Laerm;70900;51.798;10.954;2024-03-23T11:48:15;61.45;38.22;75.61;;
81493;Laerm;70900;51.798;10.954;2024-03-23T11:50:43;53.54;35.95;71.54;;
81493;Laerm;70900;51.798;10.954;2024-03-23T11:55:41;58.03;39.83;74.81;;
81493;Laerm;70900;51.798;10.954;2024-03-23T11:58:06;59.51;37.90;76.04;;
81493;Laerm;70900;51.798;10.954;2024-03-23T12:00:32;54.68;37.86;72.80;;
81493;Laerm;70900;51.798;10.954;2024-03-23T12:03:01;57.73;38.11;70.97;;
81493;Laerm;70900;51.798;10.954;2024-03-23T12:05:26;56.04;37.35;70.37;;
81493;Laerm;70900;51.798;10.954;2024-03-23T12:07:52;54.89;36.75;74.06;;
81493;Laerm;70900;51.798;10.954;2024-03-23T12:10:19;59.19;37.56;71.05;;
81493;Laerm;70900;51.798;10.954;2024-03-23T12:12:44;54.98;36.54;70.41;;
81493;Laerm;70900;51.798;10.954;2024-03-23T12:15:10;53.06;39.27;69.93;;
81493;Laerm;70900;51.798;10.954;2024-03-23T12:17:36;55.90;37.61;73.31;;
81493;Laerm;70900;51.798;10.954;2024-03-23T12:20:01;55.21;36.45;70.00;;
81493;Laerm;70900;51.798;10.954;2024-03-23T12:22:26;56.53;36.12;72.74;;
81493;Laerm;70900;51.798;10.954;2024-03-23T12:24:53;44.91;34.18;60.22;;
81493;Laerm;70900;51.798;10.954;2024-03-23T12:27:19;52.66;37.58;67.05;;
81493;Laerm;70900;51.798;10.954;2024-03-23T12:29:44;48.93;35.68;64.74;;
81493;Laerm;70900;51.798;10.954;2024-03-23T12:32:12;50.52;35.75;65.34;;
81493;Laerm;70900;51.798;10.954;2024-03-23T12:34:37;61.20;37.92;76.49;;
81493;Laerm;70900;51.798;10.954;2024-03-23T12:37:03;57.71;36.25;70.71;;
81493;Laerm;70900;51.798;10.954;2024-03-23T12:39:29;59.03;38.83;69.41;;
81493;Laerm;70900;51.798;10.954;2024-03-23T12:41:54;53.70;37.83;65.15;;
81493;Laerm;70900;51.798;10.954;2024-03-23T12:44:20;55.45;38.15;67.74;;
81493;Laerm;70900;51.798;10.954;2024-03-23T12:46:46;57.79;43.71;67.96;;
81493;Laerm;70900;51.798;10.954;2024-03-23T12:49:11;54.19;41.17;71.79;;
81493;Laerm;70900;51.798;10.954;2024-03-23T12:51:37;58.15;41.61;71.35;;
81493;Laerm;70900;51.798;10.954;2024-03-23T12:54:02;61.72;44.33;73.33;;
81493;Laerm;70900;51.798;10.954;2024-03-23T12:56:28;53.77;42.40;68.52;;
81493;Laerm;70900;51.798;10.954;2024-03-23T12:58:56;51.81;38.94;64.50;;
81493;Laerm;70900;51.798;10.954;2024-03-23T13:01:25;54.38;37.80;69.21;;
81493;Laerm;70900;51.798;10.954;2024-03-23T13:03:51;51.81;37.34;66.67;;
81493;Laerm;70900;51.798;10.954;2024-03-23T13:06:17;54.53;35.62;69.15;;
81493;Laerm;70900;51.798;10.954;2024-03-23T13:08:44;57.32;36.34;71.51;;
81493;Laerm;70900;51.798;10.954;2024-03-23T13:11:09;43.79;37.17;56.54;;
81493;Laerm;70900;51.798;10.954;2024-03-23T13:13:36;40.70;35.16;52.22;;
81493;Laerm;70900;51.798;10.954;2024-03-23T13:16:01;55.80;37.49;70.66;;
81493;Laerm;70900;51.798;10.954;2024-03-23T13:18:28;54.47;37.39;69.87;;
81493;Laerm;70900;51.798;10.954;2024-03-23T13:20:53;56.01;38.37;67.12;;
81493;Laerm;70900;51.798;10.954;2024-03-23T13:23:19;42.52;36.60;59.39;;
81493;Laerm;70900;51.798;10.954;2024-03-23T13:25:54;52.22;35.85;66.77;;
81493;Laerm;70900;51.798;10.954;2024-03-23T13:28:22;56.13;37.50;70.34;;
81493;Laerm;70900;51.798;10.954;2024-03-23T13:30:52;54.28;36.30;70.57;;
81493;Laerm;70900;51.798;10.954;2024-03-23T13:33:18;61.90;35.84;79.53;;
81493;Laerm;70900;51.798;10.954;2024-03-23T13:35:53;54.69;37.11;66.82;;
81493;Laerm;70900;51.798;10.954;2024-03-23T13:38:20;50.07;36.76;71.12;;
81493;Laerm;70900;51.798;10.954;2024-03-23T13:40:52;55.60;41.24;73.50;;
81493;Laerm;70900;51.798;10.954;2024-03-23T13:43:18;56.72;43.82;74.08;;
81493;Laerm;70900;51.798;10.954;2024-03-23T13:45:44;57.39;43.29;70.97;;
81493;Laerm;70900;51.798;10.954;2024-03-23T13:48:09;56.98;41.03;72.04;;
81493;Laerm;70900;51.798;10.954;2024-03-23T13:50:35;57.66;41.66;70.63;;
81493;Laerm;70900;51.798;10.954;2024-03-23T13:53:00;58.52;40.83;71.96;;
81493;Laerm;70900;51.798;10.954;2024-03-23T13:55:25;57.75;39.53;69.42;;
81493;Laerm;70900;51.798;10.954;2024-03-23T13:57:51;59.02;40.47;68.45;;
81493;Laerm;70900;51.798;10.954;2024-03-23T14:00:16;57.98;39.86;71.14;;
81493;Laerm;70900;51.798;10.954;2024-03-23T14:02:43;56.89;37.31;72.68;;
81493;Laerm;70900;51.798;10.954;2024-03-23T14:05:09;54.65;37.75;71.98;;
81493;Laerm;70900;51.798;10.954;2024-03-23T14:07:34;57.17;36.28;73.04;;
81493;Laerm;70900;51.798;10.954;2024-03-23T14:10:03;56.49;40.30;69.11;;
81493;Laerm;70900;51.798;10.954;2024-03-23T14:12:29;54.75;37.44;70.26;;
81493;Laerm;70900;51.798;10.954;2024-03-23T14:14:55;52.95;37.18;72.86;;
81493;Laerm;70900;51.798;10.954;2024-03-23T14:17:21;56.22;37.43;69.68;;
81493;Laerm;70900;51.798;10.954;2024-03-23T14:19:46;54.08;37.61;73.60;;
81493;Laerm;70900;51.798;10.954;2024-03-23T14:22:12;51.46;38.36;68.86;;
81493;Laerm;70900;51.798;10.954;2024-03-23T14:24:37;58.37;39.18;70.08;;
81493;Laerm;70900;51.798;10.954;2024-03-23T14:27:04;56.45;41.71;72.94;;